Time,TemperatureF,DewpointF,PressureIn,WindDirection,WindDirectionDegrees,WindSpeedMPH,WindSpeedGustMPH,Humidity,HourlyPrecipIn,Conditions,Clouds,dailyrainin,SolarRadiationWatts/m^2,SoftwareType,DateUTC
2013-05-14 00:01:00,42.8,32.6,29.99,WNW,300,5.0,6.0,67,0.00,,OVC065,0.00,0.00,VWS V14.01,2013-05-14 04:01:00,
2013-05-14 00:11:00,42.5,32.7,29.99,WNW,300,3.0,5.0,68,0.00,,OVC075,0.00,0.00,VWS V14.01,2013-05-14 04:11:00,
2013-05-14 00:21:00,42.3,32.9,29.99,WNW,300,3.0,3.0,69,0.00,,OVC075,0.00,0.00,VWS V14.01,2013-05-14 04:21:00,
2013-05-14 00:31:00,41.5,33.2,29.99,WNW,300,2.0,3.0,72,0.00,,OVC075,0.00,0.00,VWS V14.01,2013-05-14 04:31:00,
2013-05-14 00:41:00,40.2,33.2,29.99,WNW,300,0.0,3.0,76,0.00,,OVC075,0.00,0.00,VWS V14.01,2013-05-14 04:41:00,
2013-05-14 00:51:00,39.1,33.2,29.98,WNW,300,3.0,5.0,79,0.00,,OVC075,0.00,0.00,VWS V14.01,2013-05-14 04:51:00,
2013-05-14 01:01:00,38.5,33.2,29.98,WNW,300,0.0,5.0,81,0.00,,OVC075,0.00,0.00,VWS V14.01,2013-05-14 05:01:00,
2013-05-14 01:11:00,38.0,33.0,29.98,WNW,300,0.0,3.0,82,0.00,,SCT075,0.00,0.00,VWS V14.01,2013-05-14 05:11:00,
2013-05-14 01:21:00,37.6,33.2,29.99,WNW,300,2.0,3.0,84,0.00,,SCT075,0.00,0.00,VWS V14.01,2013-05-14 05:21:00,
2013-05-14 01:31:00,37.3,32.9,29.99,WNW,300,3.0,4.0,84,0.00,,SCT075,0.00,0.00,VWS V14.01,2013-05-14 05:31:00,
2013-05-14 01:41:00,37.0,32.9,29.99,WNW,300,1.0,3.0,85,0.00,,SCT075,0.00,0.00,VWS V14.01,2013-05-14 05:41:00,
2013-05-14 01:51:00,36.9,33.1,29.99,WNW,300,2.0,4.0,86,0.00,,SCT075,0.00,0.00,VWS V14.01,2013-05-14 05:51:00,
2013-05-14 02:01:00,36.6,32.8,30.00,WNW,300,0.0,2.0,86,0.00,,SCT075,0.00,0.00,VWS V14.01,2013-05-14 06:01:00,
2013-05-14 02:11:00,36.5,33.0,30.00,WNW,300,0.0,1.0,87,0.00,,CLR,0.00,0.00,VWS V14.01,2013-05-14 06:11:00,
2013-05-14 02:21:00,37.0,33.8,29.99,WNW,300,0.0,0.0,88,0.00,,CLR,0.00,0.00,VWS V14.01,2013-05-14 06:21:00,
2013-05-14 02:31:00,37.6,34.1,29.99,WNW,300,0.0,0.0,87,0.00,,CLR,0.00,0.00,VWS V14.01,2013-05-14 06:31:00,
2013-05-14 02:41:00,38.0,33.9,29.99,WNW,300,0.0,0.0,85,0.00,,SCT075,0.00,0.00,VWS V14.01,2013-05-14 06:41:00,
2013-05-14 02:51:00,38.8,34.7,29.99,WNW,300,2.0,3.0,85,0.00,,SCT075,0.00,0.00,VWS V14.01,2013-05-14 06:51:00,
2013-05-14 03:01:00,38.6,34.5,29.99,WNW,300,2.0,3.0,85,0.00,,SCT075,0.00,0.00,VWS V14.01,2013-05-14 07:01:00,
2013-05-14 03:11:00,38.3,34.2,29.99,WNW,300,1.0,4.0,85,0.00,,BKN060,0.00,0.00,VWS V14.01,2013-05-14 07:11:00,
2013-05-14 03:21:00,37.9,34.1,29.99,WNW,300,4.0,6.0,86,0.00,,BKN060,0.00,0.00,VWS V14.01,2013-05-14 07:21:00,
2013-05-14 03:31:00,37.8,34.3,29.99,WNW,300,5.0,5.0,87,0.00,,BKN060,0.00,0.00,VWS V14.01,2013-05-14 07:31:00,
2013-05-14 03:41:00,37.8,34.3,29.99,WNW,300,3.0,6.0,87,0.00,,BKN060,0.00,0.00,VWS V14.01,2013-05-14 07:41:00,
2013-05-14 03:51:00,37.9,34.7,29.99,WNW,300,3.0,4.0,88,0.00,,BKN060,0.00,0.00,VWS V14.01,2013-05-14 07:51:00,
2013-05-14 04:01:00,38.8,35.0,29.99,WNW,300,4.0,6.0,86,0.00,,BKN060,0.00,0.00,VWS V14.01,2013-05-14 08:01:00,
2013-05-14 04:11:00,39.9,33.9,29.99,WNW,300,4.0,6.0,79,0.00,,CLR,0.00,0.00,VWS V14.01,2013-05-14 08:11:00,
2013-05-14 04:21:00,40.2,34.2,29.99,WNW,300,3.0,6.0,79,0.00,,CLR,0.00,0.00,VWS V14.01,2013-05-14 08:21:00,
2013-05-14 04:31:00,40.2,34.2,29.99,WNW,300,4.0,5.0,79,0.00,,CLR,0.00,0.00,VWS V14.01,2013-05-14 08:31:00,
2013-05-14 04:41:00,40.5,34.5,29.99,WNW,300,4.0,5.0,79,0.00,,OVC080,0.00,0.00,VWS V14.01,2013-05-14 08:41:00,
2013-05-14 04:51:00,40.3,33.7,30.00,WNW,300,5.0,6.0,77,0.00,,OVC080,0.00,0.00,VWS V14.01,2013-05-14 08:51:00,
2013-05-14 05:01:00,40.2,33.6,30.00,WNW,300,4.0,7.0,77,0.00,,OVC080,0.00,0.00,VWS V14.01,2013-05-14 09:01:00,
2013-05-14 05:11:00,40.3,34.0,30.00,WNW,300,3.0,7.0,78,0.00,,OVC080,0.00,0.00,VWS V14.01,2013-05-14 09:11:00,
2013-05-14 05:21:00,40.5,34.2,30.00,WNW,300,5.0,6.0,78,0.00,,OVC080,0.00,0.00,VWS V14.01,2013-05-14 09:21:00,
2013-05-14 05:31:00,40.5,34.2,30.00,WNW,300,3.0,5.0,78,0.00,,OVC080,0.00,5.00,VWS V14.01,2013-05-14 09:31:00,
2013-05-14 05:41:00,40.5,34.5,30.00,WNW,300,4.0,6.0,79,0.00,,OVC080,0.00,14.00,VWS V14.01,2013-05-14 09:41:00,
2013-05-14 05:51:00,40.3,34.3,30.00,WNW,300,3.0,6.0,79,0.00,,OVC080,0.00,23.00,VWS V14.01,2013-05-14 09:51:00,
2013-05-14 06:01:00,40.2,34.2,30.00,WNW,294,4.0,5.0,79,0.00,,OVC080,0.00,23.00,VWS V14.01,2013-05-14 10:01:00,
2013-05-14 06:11:00,39.6,34.3,30.00,WNW,294,1.0,4.0,81,0.00,,OVC080,0.00,21.00,VWS V14.01,2013-05-14 10:11:00,
2013-05-14 06:21:00,40.2,34.5,30.01,WNW,294,2.0,4.0,80,0.00,,OVC080,0.00,25.00,VWS V14.01,2013-05-14 10:21:00,
2013-05-14 06:31:00,40.8,34.2,30.00,WNW,294,0.0,4.0,77,0.00,,OVC080,0.00,26.00,VWS V14.01,2013-05-14 10:31:00,
2013-05-14 06:41:00,41.8,33.5,30.00,WNW,290,2.0,6.0,72,0.00,,OVC080,0.00,30.00,VWS V14.01,2013-05-14 10:41:00,
2013-05-14 06:51:00,41.9,33.5,30.00,WNW,295,3.0,4.0,72,0.00,,OVC080,0.00,33.00,VWS V14.01,2013-05-14 10:51:00,
2013-05-14 07:11:00,42.5,33.4,30.01,WNW,294,4.0,8.0,70,0.00,,OVC080,0.00,86.00,VWS V14.01,2013-05-14 11:11:00,
2013-05-14 07:21:00,42.8,33.0,30.01,NNE,16,1.0,9.0,68,0.00,,OVC080,0.00,70.00,VWS V14.01,2013-05-14 11:21:00,
2013-05-14 07:31:00,43.2,33.4,30.02,NNW,333,10.0,12.0,68,0.00,,OVC080,0.00,54.00,VWS V14.01,2013-05-14 11:31:00,
2013-05-14 07:41:00,43.2,32.6,30.02,North,1,0.0,12.0,66,0.00,,BKN090,0.00,95.00,VWS V14.01,2013-05-14 11:41:00,
2013-05-14 07:51:00,43.2,32.2,30.02,WNW,291,2.0,13.0,65,0.00,,BKN090,0.00,83.00,VWS V14.01,2013-05-14 11:51:00,
2013-05-14 08:01:00,43.5,32.2,30.02,North,358,4.0,14.0,64,0.00,,BKN090,0.00,139.00,VWS V14.01,2013-05-14 12:01:00,
2013-05-14 08:11:00,44.1,32.3,30.02,WNW,302,11.0,14.0,63,0.00,,BKN090,0.00,70.00,VWS V14.01,2013-05-14 12:11:00,
2013-05-14 08:21:00,44.3,31.3,30.03,West,278,3.0,16.0,60,0.00,,BKN090,0.00,132.00,VWS V14.01,2013-05-14 12:21:00,
2013-05-14 08:31:00,44.5,31.5,30.03,SSW,193,7.0,17.0,60,0.00,,BKN090,0.00,425.00,VWS V14.01,2013-05-14 12:31:00,
2013-05-14 08:41:00,44.8,30.1,30.03,North,359,10.0,13.0,56,0.00,,CLR,0.00,206.00,VWS V14.01,2013-05-14 12:41:00,
2013-05-14 08:51:00,44.9,30.2,30.02,WNW,288,10.0,17.0,56,0.00,,CLR,0.00,107.00,VWS V14.01,2013-05-14 12:51:00,
2013-05-14 09:01:00,45.8,30.6,30.02,NW,321,0.0,17.0,55,0.00,,CLR,0.00,105.00,VWS V14.01,2013-05-14 13:01:00,
2013-05-14 09:11:00,46.4,30.7,30.02,North,0,7.0,15.0,54,0.00,,CLR,0.00,107.00,VWS V14.01,2013-05-14 13:11:00,
2013-05-14 09:21:00,47.0,29.8,30.01,West,274,8.0,15.0,51,0.00,,CLR,0.00,88.00,VWS V14.01,2013-05-14 13:21:00,
2013-05-14 09:31:00,47.7,26.9,30.00,NE,39,11.0,17.0,44,0.00,,CLR,0.00,269.00,VWS V14.01,2013-05-14 13:31:00,
2013-05-14 09:41:00,47.9,25.9,30.00,NNE,28,10.0,18.0,42,0.00,,CLR,0.00,388.00,VWS V14.01,2013-05-14 13:41:00,
2013-05-14 09:51:00,47.9,28.1,30.00,West,265,21.0,21.0,46,0.00,,CLR,0.00,436.00,VWS V14.01,2013-05-14 13:51:00,
2013-05-14 10:01:00,48.3,28.0,29.99,NW,311,5.0,21.0,45,0.00,,CLR,0.00,155.00,VWS V14.01,2013-05-14 14:01:00,
2013-05-14 10:11:00,48.6,29.8,29.99,WNW,298,8.0,20.0,48,0.00,,FEW042,0.00,125.00,VWS V14.01,2013-05-14 14:11:00,
2013-05-14 10:21:00,49.1,28.7,29.99,NW,325,6.0,18.0,45,0.00,,FEW042,0.00,292.00,VWS V14.01,2013-05-14 14:21:00,
2013-05-14 10:31:00,49.4,27.3,29.99,West,273,10.0,18.0,42,0.00,,FEW042,0.00,248.00,VWS V14.01,2013-05-14 14:31:00,
2013-05-14 10:41:00,49.6,26.3,29.99,SSW,205,1.0,20.0,40,0.00,,FEW042,0.00,193.00,VWS V14.01,2013-05-14 14:41:00,
2013-05-14 10:51:00,49.9,26.0,29.99,West,275,9.0,13.0,39,0.00,,FEW042,0.00,939.00,VWS V14.01,2013-05-14 14:51:00,
2013-05-14 11:01:00,50.4,26.4,29.98,WNW,293,5.0,17.0,39,0.00,,FEW042,0.00,956.00,VWS V14.01,2013-05-14 15:01:00,
2013-05-14 11:11:00,51.6,26.8,29.98,North,356,3.0,18.0,38,0.00,,SCT050,0.00,946.00,VWS V14.01,2013-05-14 15:11:00,
2013-05-14 11:21:00,51.7,25.0,29.98,WNW,290,7.0,16.0,35,0.00,,SCT050,0.00,962.00,VWS V14.01,2013-05-14 15:21:00,
2013-05-14 11:31:00,52.3,29.3,29.97,NW,309,14.0,25.0,41,0.00,,SCT050,0.00,970.00,VWS V14.01,2013-05-14 15:31:00,
2013-05-14 11:41:00,52.9,26.7,29.97,NW,311,6.0,20.0,36,0.00,,SCT050,0.00,986.00,VWS V14.01,2013-05-14 15:41:00,
2013-05-14 11:51:00,52.6,25.0,29.97,WNW,299,8.0,16.0,34,0.00,,SCT050,0.00,998.00,VWS V14.01,2013-05-14 15:51:00,
2013-05-14 12:01:00,52.9,26.0,29.97,WNW,303,10.0,21.0,35,0.00,,SCT050,0.00,1005.00,VWS V14.01,2013-05-14 16:01:00,
2013-05-14 12:11:00,53.3,25.0,29.97,NNE,27,4.0,18.0,33,0.00,,FEW060,0.00,1037.00,VWS V14.01,2013-05-14 16:11:00,
2013-05-14 12:21:00,53.6,25.9,29.97,North,7,2.0,21.0,34,0.00,,FEW060,0.00,1032.00,VWS V14.01,2013-05-14 16:21:00,
2013-05-14 12:31:00,54.1,23.4,29.97,WNW,300,2.0,21.0,30,0.00,,FEW060,0.00,1020.00,VWS V14.01,2013-05-14 16:31:00,
2013-05-14 12:41:00,54.4,24.4,29.97,WNW,298,6.0,15.0,31,0.00,,CLR,0.00,1034.00,VWS V14.01,2013-05-14 16:41:00,
2013-05-14 12:51:00,54.4,23.6,29.97,WNW,297,14.0,17.0,30,0.00,,CLR,0.00,1028.00,VWS V14.01,2013-05-14 16:51:00,
2013-05-14 13:01:00,55.3,25.2,29.97,WNW,285,10.0,14.0,31,0.00,,CLR,0.00,1053.00,VWS V14.01,2013-05-14 17:01:00,
2013-05-14 13:11:00,55.9,25.7,29.97,West,272,6.0,18.0,31,0.00,,CLR,0.00,1120.00,VWS V14.01,2013-05-14 17:11:00,
2013-05-14 13:21:00,55.7,22.3,29.97,WNW,303,2.0,13.0,27,0.00,,CLR,0.00,1088.00,VWS V14.01,2013-05-14 17:21:00,
2013-05-14 13:31:00,54.8,24.0,29.97,West,276,13.0,16.0,30,0.00,,CLR,0.00,418.00,VWS V14.01,2013-05-14 17:31:00,
2013-05-14 13:41:00,55.1,25.0,29.97,NW,314,9.0,16.0,31,0.00,,CLR,0.00,250.00,VWS V14.01,2013-05-14 17:41:00,
2013-05-14 13:51:00,54.1,23.4,29.97,NW,314,5.0,18.0,30,0.00,,CLR,0.00,308.00,VWS V14.01,2013-05-14 17:51:00,
2013-05-14 14:01:00,56.2,25.2,29.97,WNW,283,10.0,17.0,30,0.00,,CLR,0.00,1013.00,VWS V14.01,2013-05-14 18:01:00,
2013-05-14 14:11:00,55.0,24.2,29.97,WNW,288,5.0,15.0,30,0.00,,FEW070,0.00,309.00,VWS V14.01,2013-05-14 18:11:00,
2013-05-14 14:21:00,55.9,22.4,29.96,NNW,340,6.0,13.0,27,0.00,,FEW070,0.00,1005.00,VWS V14.01,2013-05-14 18:21:00,
2013-05-14 14:31:00,56.3,22.8,29.95,WNW,299,3.0,16.0,27,0.00,,FEW070,0.00,156.00,VWS V14.01,2013-05-14 18:31:00,
2013-05-14 14:41:00,56.3,22.8,29.95,WNW,283,9.0,13.0,27,0.00,,FEW070,0.00,1023.00,VWS V14.01,2013-05-14 18:41:00,
2013-05-14 14:51:00,56.0,24.2,29.95,NW,319,2.0,13.0,29,0.00,,FEW070,0.00,209.00,VWS V14.01,2013-05-14 18:51:00,
2013-05-14 15:01:00,55.3,22.8,29.95,ENE,68,5.0,13.0,28,0.00,,FEW070,0.00,248.00,VWS V14.01,2013-05-14 19:01:00,
2013-05-14 15:11:00,56.5,27.0,29.95,West,279,10.0,19.0,32,0.00,,SCT085,0.00,805.00,VWS V14.01,2013-05-14 19:11:00,
2013-05-14 15:21:00,56.7,24.0,29.94,North,1,5.0,13.0,28,0.00,,SCT085,0.00,239.00,VWS V14.01,2013-05-14 19:21:00,
2013-05-14 15:31:00,56.2,23.5,29.94,NE,36,4.0,13.0,28,0.00,,SCT085,0.00,872.00,VWS V14.01,2013-05-14 19:31:00,
2013-05-14 15:41:00,56.6,23.9,29.94,NE,43,10.0,13.0,28,0.00,,SCT085,0.00,933.00,VWS V14.01,2013-05-14 19:41:00,
2013-05-14 15:51:00,56.7,23.1,29.94,NE,47,11.0,13.0,27,0.00,,SCT085,0.00,870.00,VWS V14.01,2013-05-14 19:51:00,
2013-05-14 16:01:00,57.8,24.1,29.93,NE,51,12.0,14.0,27,0.00,,SCT085,0.00,754.00,VWS V14.01,2013-05-14 20:01:00,
2013-05-14 16:11:00,56.5,24.6,29.93,NNE,21,6.0,15.0,29,0.00,,FEW080,0.00,185.00,VWS V14.01,2013-05-14 20:11:00,
2013-05-14 16:21:00,56.7,24.0,29.93,NE,37,11.0,14.0,28,0.00,,FEW080,0.00,214.00,VWS V14.01,2013-05-14 20:21:00,
2013-05-14 16:31:00,55.9,24.1,29.93,NNE,14,6.0,15.0,29,0.00,,FEW080,0.00,216.00,VWS V14.01,2013-05-14 20:31:00,
2013-05-14 16:41:00,56.0,23.4,29.93,North,355,5.0,14.0,28,0.00,,FEW080,0.00,225.00,VWS V14.01,2013-05-14 20:41:00,
2013-05-14 16:51:00,56.2,25.2,29.93,NW,309,3.0,14.0,30,0.00,,FEW080,0.00,262.00,VWS V14.01,2013-05-14 20:51:00,
2013-05-14 17:01:00,57.0,24.2,29.93,West,277,12.0,14.0,28,0.00,,FEW080,0.00,631.00,VWS V14.01,2013-05-14 21:01:00,
2013-05-14 17:11:00,56.3,23.6,29.93,NNW,345,1.0,17.0,28,0.00,,BKN080,0.00,163.00,VWS V14.01,2013-05-14 21:11:00,
2013-05-14 17:21:00,56.7,23.1,29.92,NE,36,4.0,14.0,27,0.00,,BKN080,0.00,568.00,VWS V14.01,2013-05-14 21:21:00,
2013-05-14 17:31:00,57.3,22.7,29.93,WNW,288,3.0,14.0,26,0.00,,BKN080,0.00,548.00,VWS V14.01,2013-05-14 21:31:00,
2013-05-14 17:41:00,57.6,23.9,29.93,NE,37,4.0,16.0,27,0.00,,BKN080,0.00,457.00,VWS V14.01,2013-05-14 21:41:00,
2013-05-14 17:51:00,57.0,25.9,29.92,NE,46,13.0,13.0,30,0.00,,BKN080,0.00,441.00,VWS V14.01,2013-05-14 21:51:00,
2013-05-14 18:01:00,56.5,22.9,29.93,NE,41,6.0,13.0,27,0.00,,BKN080,0.00,396.00,VWS V14.01,2013-05-14 22:01:00,
2013-05-14 18:11:00,56.5,24.6,29.93,NNW,328,9.0,14.0,29,0.00,,BKN080,0.00,320.00,VWS V14.01,2013-05-14 22:11:00,
2013-05-14 18:21:00,56.6,22.1,29.92,WNW,294,10.0,16.0,26,0.00,,BKN080,0.00,260.00,VWS V14.01,2013-05-14 22:21:00,
2013-05-14 18:31:00,56.0,22.5,29.92,WNW,295,7.0,16.0,27,0.00,,BKN080,0.00,251.00,VWS V14.01,2013-05-14 22:31:00,
2013-05-14 18:41:00,55.9,24.1,29.92,WNW,293,5.0,19.0,29,0.00,,FEW080,0.00,230.00,VWS V14.01,2013-05-14 22:41:00,
2013-05-14 18:51:00,55.6,23.0,29.93,NW,316,3.0,15.0,28,0.00,,FEW080,0.00,90.00,VWS V14.01,2013-05-14 22:51:00,
2013-05-14 19:01:00,55.0,24.2,29.94,NNE,12,4.0,10.0,30,0.00,,FEW080,0.00,44.00,VWS V14.01,2013-05-14 23:01:00,
2013-05-14 19:11:00,54.4,22.8,29.94,North,351,4.0,10.0,29,0.00,,FEW080,0.00,56.00,VWS V14.01,2013-05-14 23:11:00,
2013-05-14 19:21:00,53.9,21.6,29.94,NNE,22,6.0,6.0,28,0.00,,FEW080,0.00,28.00,VWS V14.01,2013-05-14 23:21:00,
2013-05-14 19:31:00,53.6,23.7,29.94,NW,313,3.0,6.0,31,0.00,,FEW080,0.00,28.00,VWS V14.01,2013-05-14 23:31:00,
2013-05-14 19:41:00,53.3,23.5,29.94,WNW,294,2.0,6.0,31,0.00,,FEW080,0.00,12.00,VWS V14.01,2013-05-14 23:41:00,
2013-05-14 19:51:00,52.8,23.8,29.95,NNW,345,2.0,7.0,32,0.00,,FEW080,0.00,9.00,VWS V14.01,2013-05-14 23:51:00,
2013-05-14 20:01:00,52.3,24.1,29.95,NW,309,2.0,5.0,33,0.00,,FEW080,0.00,0.00,VWS V14.01,2013-05-15 00:01:00,
2013-05-14 20:11:00,51.9,25.1,29.95,NW,309,0.0,4.0,35,0.00,,CLR,0.00,0.00,VWS V14.01,2013-05-15 00:11:00,
2013-05-14 20:21:00,51.4,27.9,29.96,NW,309,2.0,4.0,40,0.00,,CLR,0.00,0.00,VWS V14.01,2013-05-15 00:21:00,
2013-05-14 20:31:00,50.5,27.1,29.97,NW,309,3.0,3.0,40,0.00,,CLR,0.00,0.00,VWS V14.01,2013-05-15 00:31:00,
2013-05-14 20:41:00,49.9,28.9,29.97,NW,309,2.0,4.0,44,0.00,,FEW090,0.00,0.00,VWS V14.01,2013-05-15 00:41:00,
2013-05-14 20:51:00,48.2,30.9,29.97,NW,309,2.0,4.0,51,0.00,,FEW090,0.00,0.00,VWS V14.01,2013-05-15 00:51:00,
2013-05-14 21:01:00,46.4,31.6,29.98,NW,309,3.0,4.0,56,0.00,,FEW090,0.00,0.00,VWS V14.01,2013-05-15 01:01:00,
2013-05-14 21:11:00,45.2,30.9,29.98,NW,309,2.0,4.0,57,0.00,,BKN090,0.00,0.00,VWS V14.01,2013-05-15 01:11:00,
2013-05-14 21:21:00,44.9,31.5,29.99,NW,309,1.0,4.0,59,0.00,,BKN090,0.00,0.00,VWS V14.01,2013-05-15 01:21:00,
2013-05-14 21:31:00,44.8,30.9,29.99,NW,309,0.0,1.0,58,0.00,,BKN090,0.00,0.00,VWS V14.01,2013-05-15 01:31:00,
2013-05-14 21:41:00,44.3,30.9,29.99,NW,309,0.0,0.0,59,0.00,,BKN090,0.00,0.00,VWS V14.01,2013-05-15 01:41:00,
2013-05-14 21:51:00,44.2,31.2,29.99,NW,309,0.0,0.0,60,0.00,,BKN090,0.00,0.00,VWS V14.01,2013-05-15 01:51:00,
2013-05-14 22:01:00,43.6,30.2,29.99,NW,309,0.0,1.0,59,0.00,,BKN090,0.00,0.00,VWS V14.01,2013-05-15 02:01:00,
2013-05-14 22:11:00,43.2,30.3,29.99,NW,309,0.0,2.0,60,0.00,,CLR,0.00,0.00,VWS V14.01,2013-05-15 02:11:00,
2013-05-14 22:21:00,43.9,32.1,30.00,NW,309,0.0,0.0,63,0.00,,CLR,0.00,0.00,VWS V14.01,2013-05-15 02:21:00,
2013-05-14 22:31:00,43.8,30.8,30.00,NW,309,0.0,3.0,60,0.00,,CLR,0.00,0.00,VWS V14.01,2013-05-15 02:31:00,
2013-05-14 22:41:00,43.5,31.4,30.00,NW,309,0.0,0.0,62,0.00,,CLR,0.00,0.00,VWS V14.01,2013-05-15 02:41:00,
2013-05-14 22:51:00,42.8,31.1,30.00,NW,309,0.0,2.0,63,0.00,,CLR,0.00,0.00,VWS V14.01,2013-05-15 02:51:00,
2013-05-14 23:01:00,42.2,30.9,30.00,NW,309,0.0,0.0,64,0.00,,CLR,0.00,0.00,VWS V14.01,2013-05-15 03:01:00,
2013-05-14 23:11:00,41.8,31.7,30.00,NW,309,0.0,0.0,67,0.00,,OVC080,0.00,0.00,VWS V14.01,2013-05-15 03:11:00,
2013-05-14 23:21:00,41.3,32.3,30.00,NW,309,0.0,2.0,70,0.00,,OVC080,0.00,0.00,VWS V14.01,2013-05-15 03:21:00,
2013-05-14 23:31:00,40.8,32.1,30.00,NW,309,0.0,0.0,71,0.00,,OVC080,0.00,0.00,VWS V14.01,2013-05-15 03:31:00,
2013-05-14 23:41:00,40.5,33.2,30.00,NW,309,0.0,0.0,75,0.00,,OVC080,0.00,0.00,VWS V14.01,2013-05-15 03:41:00,
2013-05-14 23:51:00,40.1,33.2,30.00,NW,309,0.0,2.0,76,0.00,,OVC080,0.00,0.00,VWS V14.01,2013-05-15 03:51:00,